Time;durP1;ratioP1;P1;durP2;ratioP2;P2;SDS_P1;SDS_P2;PMS_P1;PMS_P2;Temp;Humidity;BMP_temperature;BMP_pressure;BME280_temperature;BME280_humidity;BME280_pressure;Samples;Min_cycle;Max_cycle;Signal;HPM_P1;HPM_P2
2021/06/12 00:00:05;;;;;;;;;;;24.80;45.30;;;;;;1482375;40;19936;-65
2021/06/12 00:01:26;;;;;;;;;;;24.80;45.30;;;;;;1481966;40;19938;-65
2021/06/12 00:02:47;;;;;;;;;;;24.80;45.40;;;;;;1483588;40;20665;-65
2021/06/12 00:04:08;;;;;;;;;;;24.80;45.70;;;;;;1482423;39;19947;-65
2021/06/12 00:05:29;;;;;;;;;;;24.80;45.70;;;;;;1482569;40;19987;-65
2021/06/12 00:06:50;;;;;;;;;;;24.80;45.30;;;;;;1480878;40;19932;-66
2021/06/12 00:08:11;;;;;;;;;;;24.80;45.20;;;;;;1482077;40;19991;-65
2021/06/12 00:09:32;;;;;;;;;;;24.80;45.30;;;;;;1483427;39;19954;-65
2021/06/12 00:10:52;;;;;;;;;;;24.80;45.60;;;;;;1481782;40;19987;-65
2021/06/12 00:12:13;;;;;;;;;;;24.80;45.70;;;;;;1483037;40;20161;-65
2021/06/12 00:13:34;;;;;;;;;;;24.80;45.60;;;;;;1481916;40;19954;-65
2021/06/12 00:14:55;;;;;;;;;;;24.80;45.70;;;;;;1483176;40;19964;-66
2021/06/12 00:16:17;;;;;;;;;;;24.80;45.90;;;;;;1482063;40;19933;-65
2021/06/12 00:17:38;;;;;;;;;;;24.70;45.70;;;;;;1481971;40;19940;-65
2021/06/12 00:18:59;;;;;;;;;;;24.70;45.90;;;;;;1480570;40;20359;-65
2021/06/12 00:20:23;;;;;;;;;;;24.80;45.80;;;;;;1482596;40;19945;-65
2021/06/12 00:21:44;;;;;;;;;;;24.70;45.90;;;;;;1482993;40;19936;-66
2021/06/12 00:23:06;;;;;;;;;;;24.70;45.90;;;;;;1483982;40;19960;-64
2021/06/12 00:24:26;;;;;;;;;;;24.70;45.60;;;;;;1483151;40;19932;-64
2021/06/12 00:25:47;;;;;;;;;;;24.70;46.00;;;;;;1483401;40;19966;-66
2021/06/12 00:27:09;;;;;;;;;;;24.70;45.80;;;;;;1482138;40;19932;-66
2021/06/12 00:28:29;;;;;;;;;;;24.70;45.80;;;;;;1481033;40;20160;-66
2021/06/12 00:29:50;;;;;;;;;;;24.70;45.90;;;;;;1482625;40;19943;-66
2021/06/12 00:31:11;;;;;;;;;;;24.60;45.90;;;;;;1483259;40;19936;-66
2021/06/12 00:32:32;;;;;;;;;;;24.60;46.10;;;;;;1481627;40;19936;-66
2021/06/12 00:33:53;;;;;;;;;;;24.60;46.00;;;;;;1480772;40;19947;-64
2021/06/12 00:35:14;;;;;;;;;;;24.60;46.20;;;;;;1480875;40;19968;-66
2021/06/12 00:36:35;;;;;;;;;;;24.60;46.10;;;;;;1481534;40;19933;-66
2021/06/12 00:37:56;;;;;;;;;;;24.60;46.30;;;;;;1482687;40;21757;-66
2021/06/12 00:39:16;;;;;;;;;;;24.50;46.50;;;;;;1483781;40;20511;-64
2021/06/12 00:40:38;;;;;;;;;;;24.60;46.40;;;;;;1483003;40;19940;-64
2021/06/12 00:41:58;;;;;;;;;;;24.50;46.50;;;;;;1482927;40;19932;-64
2021/06/12 00:43:19;;;;;;;;;;;24.50;46.40;;;;;;1483953;40;19936;-64
2021/06/12 00:44:40;;;;;;;;;;;24.50;46.50;;;;;;1481729;40;19955;-64
2021/06/12 00:46:01;;;;;;;;;;;24.50;46.10;;;;;;1481523;40;19968;-64
2021/06/12 00:47:22;;;;;;;;;;;24.50;46.50;;;;;;1480942;40;19999;-64
2021/06/12 00:48:44;;;;;;;;;;;24.40;46.10;;;;;;1481709;40;19940;-64
2021/06/12 00:50:06;;;;;;;;;;;24.40;46.60;;;;;;1482688;40;20012;-64
2021/06/12 00:51:27;;;;;;;;;;;24.40;46.70;;;;;;1483102;40;20033;-64
2021/06/12 00:52:48;;;;;;;;;;;24.40;46.70;;;;;;1481780;40;19976;-64
2021/06/12 00:54:09;;;;;;;;;;;24.40;46.80;;;;;;1482202;40;20289;-64
2021/06/12 00:55:30;;;;;;;;;;;24.40;46.80;;;;;;1482509;40;19936;-65
2021/06/12 00:56:51;;;;;;;;;;;24.30;46.40;;;;;;1482268;40;20032;-64
2021/06/12 00:58:13;;;;;;;;;;;24.40;46.10;;;;;;1480792;40;19940;-65
2021/06/12 00:59:33;;;;;;;;;;;24.30;46.50;;;;;;1482516;40;20180;-64
2021/06/12 01:00:54;;;;;;;;;;;24.30;46.50;;;;;;1482934;40;20140;-64
2021/06/12 01:02:15;;;;;;;;;;;24.30;46.70;;;;;;1482406;40;19963;-64
2021/06/12 01:03:39;;;;;;;;;;;24.30;46.70;;;;;;1482582;40;19941;-64
2021/06/12 01:05:00;;;;;;;;;;;24.30;46.70;;;;;;1482603;40;19952;-64
2021/06/12 01:06:20;;;;;;;;;;;24.30;46.60;;;;;;1482593;40;20041;-64
2021/06/12 01:07:41;;;;;;;;;;;24.30;46.50;;;;;;1482629;40;19980;-64
2021/06/12 01:09:02;;;;;;;;;;;24.30;46.40;;;;;;1482194;40;20177;-64
2021/06/12 01:10:23;;;;;;;;;;;24.30;46.70;;;;;;1482926;40;20304;-64
2021/06/12 01:11:51;;;;;;;;;;;24.30;46.40;;;;;;1480495;40;19932;-64
2021/06/12 01:13:31;;;;;;;;;;;24.30;46.50;;;;;;1481600;40;19948;-64
2021/06/12 01:14:53;;;;;;;;;;;24.30;46.90;;;;;;1481651;40;19936;-64
2021/06/12 01:16:24;;;;;;;;;;;24.30;47.10;;;;;;1482494;40;19939;-66
2021/06/12 01:17:47;;;;;;;;;;;24.30;47.10;;;;;;1481468;40;19964;-66
2021/06/12 01:19:27;;;;;;;;;;;24.30;47.20;;;;;;1481992;40;19943;-66
2021/06/12 01:21:23;;;;;;;;;;;24.30;47.20;;;;;;1482171;40;19947;-66
2021/06/12 01:22:47;;;;;;;;;;;24.30;47.30;;;;;;1470794;40;19946;-66
2021/06/12 01:24:07;;;;;;;;;;;24.30;47.40;;;;;;1469729;40;19943;-66
2021/06/12 01:25:37;;;;;;;;;;;24.30;47.50;;;;;;1482853;40;19964;-66
2021/06/12 01:27:16;;;;;;;;;;;24.20;47.40;;;;;;1482893;40;20007;-66
2021/06/12 01:28:53;;;;;;;;;;;24.30;47.50;;;;;;1482752;40;19973;-66
2021/06/12 01:30:22;;;;;;;;;;;24.20;47.50;;;;;;1482632;40;19948;-66
2021/06/12 01:31:43;;;;;;;;;;;24.20;47.50;;;;;;1479991;40;19932;-66
2021/06/12 01:33:06;;;;;;;;;;;24.20;47.70;;;;;;1482127;40;19940;-66
2021/06/12 01:34:28;;;;;;;;;;;24.20;47.60;;;;;;1480411;40;20025;-66
2021/06/12 01:35:51;;;;;;;;;;;24.20;47.60;;;;;;1482430;40;19944;-66
2021/06/12 01:37:13;;;;;;;;;;;24.20;47.60;;;;;;1482476;40;19932;-66
2021/06/12 01:38:36;;;;;;;;;;;24.20;47.60;;;;;;1483911;39;20246;-66
2021/06/12 01:39:57;;;;;;;;;;;24.20;47.60;;;;;;1482738;40;19971;-66
2021/06/12 01:41:20;;;;;;;;;;;24.20;47.70;;;;;;1483231;40;20017;-65
2021/06/12 01:42:42;;;;;;;;;;;24.20;47.50;;;;;;1483476;39;19943;-65
2021/06/12 01:44:04;;;;;;;;;;;24.20;47.70;;;;;;1483559;40;20037;-65
2021/06/12 01:45:25;;;;;;;;;;;24.20;47.60;;;;;;1482636;40;20249;-65
2021/06/12 01:46:46;;;;;;;;;;;24.20;47.90;;;;;;1481941;40;19944;-65
2021/06/12 01:48:08;;;;;;;;;;;24.10;47.80;;;;;;1482514;40;20257;-65
2021/06/12 01:49:30;;;;;;;;;;;24.20;47.80;;;;;;1482587;40;19940;-66
2021/06/12 01:50:51;;;;;;;;;;;24.20;47.60;;;;;;1482501;40;19972;-65
2021/06/12 01:52:12;;;;;;;;;;;24.10;47.80;;;;;;1484247;40;20024;-65
2021/06/12 01:53:34;;;;;;;;;;;24.10;47.80;;;;;;1481828;40;20396;-66
2021/06/12 01:54:55;;;;;;;;;;;24.10;47.80;;;;;;1483223;40;20245;-65
2021/06/12 01:56:17;;;;;;;;;;;24.10;47.90;;;;;;1482044;40;19936;-65
2021/06/12 01:57:40;;;;;;;;;;;24.10;47.80;;;;;;1481616;40;20198;-66
2021/06/12 01:59:01;;;;;;;;;;;24.10;48.00;;;;;;1483102;40;20028;-66
2021/06/12 02:00:23;;;;;;;;;;;24.10;48.00;;;;;;1482796;40;20533;-66
2021/06/12 02:01:48;;;;;;;;;;;24.10;48.00;;;;;;1482682;40;20038;-66
2021/06/12 02:03:09;;;;;;;;;;;24.10;48.10;;;;;;1482579;40;20169;-66
2021/06/12 02:04:31;;;;;;;;;;;24.10;48.10;;;;;;1483137;40;20102;-66
2021/06/12 02:05:52;;;;;;;;;;;24.10;48.30;;;;;;1482743;40;19940;-66
2021/06/12 02:07:14;;;;;;;;;;;24.10;48.30;;;;;;1482566;40;19966;-66
2021/06/12 02:08:34;;;;;;;;;;;24.00;48.30;;;;;;1483008;40;19936;-66
2021/06/12 02:09:55;;;;;;;;;;;24.00;48.50;;;;;;1482191;40;19940;-66
2021/06/12 02:11:17;;;;;;;;;;;24.00;48.10;;;;;;1482293;40;19940;-66
2021/06/12 02:12:39;;;;;;;;;;;24.10;48.10;;;;;;1481680;40;19944;-65
2021/06/12 02:13:59;;;;;;;;;;;24.00;48.10;;;;;;1483504;40;20164;-65
2021/06/12 02:15:21;;;;;;;;;;;24.00;48.00;;;;;;1483244;40;19968;-65
2021/06/12 02:16:42;;;;;;;;;;;24.00;48.20;;;;;;1482197;40;19932;-66
2021/06/12 02:18:05;;;;;;;;;;;24.00;48.20;;;;;;1482910;40;19947;-65
2021/06/12 02:19:26;;;;;;;;;;;23.90;48.20;;;;;;1482081;40;19948;-65
2021/06/12 02:20:48;;;;;;;;;;;23.90;48.20;;;;;;1482727;40;19964;-65
2021/06/12 02:22:09;;;;;;;;;;;24.00;48.30;;;;;;1482413;40;20172;-66
2021/06/12 02:23:30;;;;;;;;;;;24.00;48.10;;;;;;1482982;40;19963;-65
2021/06/12 02:24:51;;;;;;;;;;;23.90;48.20;;;;;;1481845;40;19940;-65
2021/06/12 02:26:13;;;;;;;;;;;23.90;49.00;;;;;;1481583;40;20035;-65
2021/06/12 02:27:35;;;;;;;;;;;23.90;48.60;;;;;;1482820;40;19937;-65
2021/06/12 02:28:56;;;;;;;;;;;23.90;48.90;;;;;;1483002;40;20240;-65
2021/06/12 02:30:18;;;;;;;;;;;23.90;48.80;;;;;;1483921;40;19936;-65
2021/06/12 02:31:48;;;;;;;;;;;23.90;48.70;;;;;;1484692;40;19936;-65
2021/06/12 02:33:11;;;;;;;;;;;23.90;49.10;;;;;;1484034;40;19968;-65
2021/06/12 02:34:33;;;;;;;;;;;23.90;49.40;;;;;;1482406;40;19996;-65
2021/06/12 02:35:54;;;;;;;;;;;23.90;49.20;;;;;;1481304;40;20071;-65
2021/06/12 02:37:15;;;;;;;;;;;23.80;49.10;;;;;;1483360;40;20140;-65
2021/06/12 02:38:36;;;;;;;;;;;23.80;49.20;;;;;;1482423;40;19933;-65
2021/06/12 02:39:57;;;;;;;;;;;23.80;49.40;;;;;;1484247;40;19943;-65
2021/06/12 02:41:18;;;;;;;;;;;23.80;49.50;;;;;;1483650;40;19936;-66
2021/06/12 02:42:39;;;;;;;;;;;23.70;49.10;;;;;;1483890;40;19942;-65
2021/06/12 02:44:00;;;;;;;;;;;23.70;49.20;;;;;;1484633;40;20030;-65
2021/06/12 02:45:20;;;;;;;;;;;23.70;49.30;;;;;;1482203;40;20295;-65
2021/06/12 02:46:43;;;;;;;;;;;23.70;49.20;;;;;;1484586;39;19940;-65
2021/06/12 02:48:07;;;;;;;;;;;23.70;48.90;;;;;;1481669;40;20028;-65
2021/06/12 02:49:32;;;;;;;;;;;23.70;49.00;;;;;;1484406;40;19943;-65
2021/06/12 02:50:55;;;;;;;;;;;23.70;48.80;;;;;;1482838;40;19940;-65
2021/06/12 02:52:18;;;;;;;;;;;23.70;49.10;;;;;;1483318;40;19932;-65
2021/06/12 02:53:41;;;;;;;;;;;23.60;49.40;;;;;;1484080;40;19943;-65
2021/06/12 02:55:05;;;;;;;;;;;23.60;49.20;;;;;;1484102;40;20117;-65
2021/06/12 02:56:26;;;;;;;;;;;23.70;49.30;;;;;;1483202;40;19937;-65
2021/06/12 02:57:48;;;;;;;;;;;23.60;49.20;;;;;;1482668;40;20098;-65
2021/06/12 02:59:11;;;;;;;;;;;23.60;49.10;;;;;;1483878;40;20173;-65
2021/06/12 03:00:34;;;;;;;;;;;23.60;48.90;;;;;;1483387;40;19940;-66
2021/06/12 03:01:55;;;;;;;;;;;23.60;48.90;;;;;;1482348;40;19944;-66
2021/06/12 03:03:16;;;;;;;;;;;23.60;49.10;;;;;;1482205;40;20242;-66
2021/06/12 03:04:38;;;;;;;;;;;23.60;49.00;;;;;;1481223;40;20165;-66
2021/06/12 03:05:59;;;;;;;;;;;23.50;48.90;;;;;;1483316;40;20519;-66
2021/06/12 03:07:21;;;;;;;;;;;23.60;49.00;;;;;;1481687;40;19980;-66
2021/06/12 03:08:43;;;;;;;;;;;23.50;49.00;;;;;;1482531;40;19937;-66
2021/06/12 03:10:04;;;;;;;;;;;23.50;49.00;;;;;;1484231;40;20321;-66
2021/06/12 03:11:27;;;;;;;;;;;23.50;49.00;;;;;;1483750;40;19970;-66
2021/06/12 03:12:49;;;;;;;;;;;23.50;49.10;;;;;;1481762;40;19971;-66
2021/06/12 03:14:11;;;;;;;;;;;23.50;49.30;;;;;;1481767;40;20363;-66
2021/06/12 03:15:33;;;;;;;;;;;23.50;49.20;;;;;;1483204;40;19943;-66
2021/06/12 03:16:55;;;;;;;;;;;23.50;49.00;;;;;;1481720;40;19972;-66
2021/06/12 03:18:16;;;;;;;;;;;23.50;49.00;;;;;;1483813;40;19936;-66
2021/06/12 03:19:37;;;;;;;;;;;23.50;49.10;;;;;;1481885;40;19955;-66
2021/06/12 03:20:59;;;;;;;;;;;23.50;49.10;;;;;;1482768;40;19947;-65
2021/06/12 03:22:20;;;;;;;;;;;23.50;49.00;;;;;;1483329;40;20180;-66
2021/06/12 03:23:41;;;;;;;;;;;23.50;49.00;;;;;;1482673;40;20461;-66
2021/06/12 03:25:06;;;;;;;;;;;23.50;49.60;;;;;;1483293;40;19943;-66
2021/06/12 03:26:27;;;;;;;;;;;23.50;49.10;;;;;;1482888;40;20271;-66
2021/06/12 03:27:48;;;;;;;;;;;23.50;49.10;;;;;;1482001;40;19932;-66
2021/06/12 03:29:09;;;;;;;;;;;23.50;49.20;;;;;;1483902;40;19951;-66
2021/06/12 03:30:30;;;;;;;;;;;23.50;49.00;;;;;;1480550;40;19941;-66
2021/06/12 03:31:51;;;;;;;;;;;23.40;48.90;;;;;;1481533;40;19967;-66
2021/06/12 03:33:12;;;;;;;;;;;23.40;48.90;;;;;;1482577;40;20017;-66
2021/06/12 03:34:33;;;;;;;;;;;23.40;48.40;;;;;;1483102;40;19936;-66
2021/06/12 03:35:55;;;;;;;;;;;23.40;48.40;;;;;;1482848;40;19965;-66
2021/06/12 03:37:16;;;;;;;;;;;23.40;48.60;;;;;;1480813;40;19940;-66
2021/06/12 03:38:37;;;;;;;;;;;23.40;48.80;;;;;;1479077;40;19964;-65
2021/06/12 03:39:58;;;;;;;;;;;23.40;48.70;;;;;;1480363;40;20030;-66
2021/06/12 03:41:19;;;;;;;;;;;23.40;48.80;;;;;;1483632;40;19937;-66
2021/06/12 03:42:40;;;;;;;;;;;23.40;48.80;;;;;;1482226;40;19956;-66
2021/06/12 03:44:01;;;;;;;;;;;23.40;48.80;;;;;;1482515;40;20181;-66
2021/06/12 03:45:23;;;;;;;;;;;23.40;49.00;;;;;;1484068;39;19959;-64
2021/06/12 03:46:46;;;;;;;;;;;23.40;49.10;;;;;;1482100;40;19936;-64
2021/06/12 03:48:08;;;;;;;;;;;23.40;49.20;;;;;;1483185;40;19932;-65
2021/06/12 03:49:29;;;;;;;;;;;23.40;49.20;;;;;;1482629;40;20029;-66
2021/06/12 03:50:51;;;;;;;;;;;23.30;49.20;;;;;;1483026;40;19952;-66
2021/06/12 03:52:12;;;;;;;;;;;23.30;49.40;;;;;;1483751;40;19947;-66
2021/06/12 03:53:43;;;;;;;;;;;23.30;49.10;;;;;;1481470;40;19985;-66
2021/06/12 03:55:04;;;;;;;;;;;23.30;49.00;;;;;;1483780;40;19932;-66
2021/06/12 03:56:33;;;;;;;;;;;23.30;49.30;;;;;;1482627;40;19948;-66
2021/06/12 03:57:54;;;;;;;;;;;23.30;49.40;;;;;;1482223;40;19932;-66
2021/06/12 03:59:14;;;;;;;;;;;23.20;49.30;;;;;;1482915;40;19944;-66
2021/06/12 04:00:35;;;;;;;;;;;23.20;49.30;;;;;;1483694;40;20146;-64
2021/06/12 04:01:57;;;;;;;;;;;23.20;49.30;;;;;;1483233;40;20030;-65
2021/06/12 04:03:18;;;;;;;;;;;23.20;49.40;;;;;;1483247;39;19943;-66
2021/06/12 04:04:39;;;;;;;;;;;23.20;49.60;;;;;;1483834;40;20041;-66
2021/06/12 04:06:00;;;;;;;;;;;23.20;49.70;;;;;;1482696;40;20062;-66
2021/06/12 04:07:20;;;;;;;;;;;23.20;49.80;;;;;;1481784;40;19947;-66
2021/06/12 04:08:41;;;;;;;;;;;23.20;49.60;;;;;;1483411;40;20020;-66
2021/06/12 04:10:03;;;;;;;;;;;23.20;49.60;;;;;;1481517;40;20328;-66
2021/06/12 04:11:24;;;;;;;;;;;23.20;49.80;;;;;;1482301;40;19948;-66
2021/06/12 04:12:45;;;;;;;;;;;23.10;49.80;;;;;;1481325;40;19932;-65
2021/06/12 04:14:05;;;;;;;;;;;23.10;50.80;;;;;;1481579;40;19932;-66
2021/06/12 04:15:28;;;;;;;;;;;23.10;51.10;;;;;;1483090;40;19959;-66
2021/06/12 04:16:48;;;;;;;;;;;23.10;50.20;;;;;;1482176;40;19952;-66
2021/06/12 04:18:09;;;;;;;;;;;23.10;50.50;;;;;;1481486;40;20236;-66
2021/06/12 04:19:30;;;;;;;;;;;23.10;50.00;;;;;;1482077;40;20050;-66
2021/06/12 04:20:51;;;;;;;;;;;23.10;50.20;;;;;;1482353;40;20177;-66
2021/06/12 04:22:12;;;;;;;;;;;23.00;50.30;;;;;;1481903;40;19962;-66
2021/06/12 04:23:33;;;;;;;;;;;23.00;50.10;;;;;;1484499;40;19940;-66
2021/06/12 04:24:53;;;;;;;;;;;23.00;50.10;;;;;;1482150;40;19932;-66
2021/06/12 04:26:14;;;;;;;;;;;22.90;51.30;;;;;;1482940;40;19980;-66
2021/06/12 04:27:35;;;;;;;;;;;22.90;50.80;;;;;;1482666;40;19940;-66
2021/06/12 04:28:56;;;;;;;;;;;22.90;50.60;;;;;;1484247;40;19943;-66
2021/06/12 04:30:19;;;;;;;;;;;22.90;50.80;;;;;;1483033;40;19939;-66
2021/06/12 04:31:40;;;;;;;;;;;22.90;50.60;;;;;;1482922;40;20008;-66
2021/06/12 04:33:02;;;;;;;;;;;22.90;50.20;;;;;;1482157;40;19940;-66
2021/06/12 04:34:23;;;;;;;;;;;22.90;50.80;;;;;;1482059;40;19936;-66
2021/06/12 04:35:44;;;;;;;;;;;22.90;50.70;;;;;;1478168;40;19947;-66
2021/06/12 04:37:06;;;;;;;;;;;22.90;50.90;;;;;;1480615;40;20021;-66
2021/06/12 04:38:27;;;;;;;;;;;22.90;50.60;;;;;;1483352;40;20244;-66
2021/06/12 04:39:48;;;;;;;;;;;22.90;50.70;;;;;;1483831;40;20360;-66
2021/06/12 04:41:08;;;;;;;;;;;22.80;50.80;;;;;;1483142;40;19951;-66
2021/06/12 04:42:29;;;;;;;;;;;22.80;50.80;;;;;;1482095;40;19940;-66
2021/06/12 04:43:50;;;;;;;;;;;22.80;50.60;;;;;;1482368;40;20410;-66
2021/06/12 04:45:11;;;;;;;;;;;22.80;50.60;;;;;;1483818;40;19943;-66
2021/06/12 04:46:32;;;;;;;;;;;22.80;50.80;;;;;;1483030;40;20180;-66
2021/06/12 04:47:53;;;;;;;;;;;22.70;50.50;;;;;;1482868;40;20277;-65
2021/06/12 04:49:14;;;;;;;;;;;22.70;50.60;;;;;;1482535;40;19973;-66
2021/06/12 04:50:37;;;;;;;;;;;22.80;50.80;;;;;;1483214;40;20241;-66
2021/06/12 04:51:58;;;;;;;;;;;22.70;50.80;;;;;;1483258;40;19940;-66
2021/06/12 04:53:18;;;;;;;;;;;22.80;51.00;;;;;;1482834;40;19944;-66
2021/06/12 04:54:39;;;;;;;;;;;22.70;50.90;;;;;;1483991;40;20146;-66
2021/06/12 04:56:00;;;;;;;;;;;22.80;50.80;;;;;;1481761;40;19936;-66
2021/06/12 04:57:21;;;;;;;;;;;22.70;50.50;;;;;;1483407;40;20348;-66
2021/06/12 04:58:42;;;;;;;;;;;22.70;50.80;;;;;;1483813;39;19948;-66
2021/06/12 05:00:08;;;;;;;;;;;22.70;50.80;;;;;;1481574;40;20032;-66
2021/06/12 05:01:28;;;;;;;;;;;22.70;50.80;;;;;;1481276;40;19933;-66
2021/06/12 05:02:49;;;;;;;;;;;22.70;51.30;;;;;;1480868;40;19936;-66
2021/06/12 05:04:10;;;;;;;;;;;22.70;51.00;;;;;;1482401;40;20201;-66
2021/06/12 05:05:31;;;;;;;;;;;22.70;51.10;;;;;;1481879;40;19939;-66
2021/06/12 05:06:52;;;;;;;;;;;22.70;51.00;;;;;;1480756;40;19932;-66
2021/06/12 05:08:13;;;;;;;;;;;22.70;51.20;;;;;;1482041;40;19942;-66
2021/06/12 05:09:34;;;;;;;;;;;22.60;51.10;;;;;;1482060;40;20300;-66
2021/06/12 05:10:55;;;;;;;;;;;22.70;51.20;;;;;;1482042;40;20033;-66
2021/06/12 05:12:15;;;;;;;;;;;22.70;51.30;;;;;;1482102;40;20193;-67
2021/06/12 05:13:36;;;;;;;;;;;22.60;51.20;;;;;;1484250;40;20023;-66
2021/06/12 05:15:00;;;;;;;;;;;22.60;51.10;;;;;;1483925;40;20030;-66
2021/06/12 05:16:22;;;;;;;;;;;22.60;51.30;;;;;;1480168;40;19948;-66
2021/06/12 05:17:43;;;;;;;;;;;22.70;51.10;;;;;;1483474;40;20543;-65
2021/06/12 05:19:04;;;;;;;;;;;22.60;51.30;;;;;;1483893;40;20268;-66
2021/06/12 05:20:25;;;;;;;;;;;22.70;51.20;;;;;;1482071;40;20025;-65
2021/06/12 05:21:48;;;;;;;;;;;22.60;51.20;;;;;;1483631;40;20041;-65
2021/06/12 05:23:09;;;;;;;;;;;22.60;51.00;;;;;;1484774;40;19986;-65
2021/06/12 05:24:30;;;;;;;;;;;22.60;51.30;;;;;;1483300;40;20258;-65
2021/06/12 05:25:50;;;;;;;;;;;22.60;51.70;;;;;;1483474;40;20178;-65
2021/06/12 05:27:11;;;;;;;;;;;22.60;52.90;;;;;;1483421;40;19943;-65
2021/06/12 05:28:32;;;;;;;;;;;22.60;52.20;;;;;;1483734;40;20035;-66
2021/06/12 05:29:53;;;;;;;;;;;22.60;51.90;;;;;;1483828;40;19984;-65
2021/06/12 05:31:14;;;;;;;;;;;22.60;51.70;;;;;;1483247;40;19951;-65
2021/06/12 05:32:34;;;;;;;;;;;22.60;51.10;;;;;;1483655;40;19945;-66
2021/06/12 05:33:55;;;;;;;;;;;22.60;51.40;;;;;;1482909;40;19944;-66
2021/06/12 05:35:16;;;;;;;;;;;22.60;51.30;;;;;;1484363;40;19932;-65
2021/06/12 05:36:37;;;;;;;;;;;22.60;52.40;;;;;;1484001;40;19940;-65
2021/06/12 05:37:59;;;;;;;;;;;22.60;51.70;;;;;;1483576;40;19936;-65
2021/06/12 05:39:20;;;;;;;;;;;22.60;51.70;;;;;;1483265;40;19991;-65
2021/06/12 05:40:41;;;;;;;;;;;22.70;51.70;;;;;;1483733;40;19966;-65
2021/06/12 05:42:02;;;;;;;;;;;22.60;51.70;;;;;;1482498;40;19952;-65
2021/06/12 05:43:23;;;;;;;;;;;22.60;51.70;;;;;;1483902;40;19948;-66
2021/06/12 05:44:43;;;;;;;;;;;22.70;52.40;;;;;;1483337;40;19949;-65
2021/06/12 05:46:04;;;;;;;;;;;22.60;52.10;;;;;;1483504;40;19944;-65
2021/06/12 05:47:25;;;;;;;;;;;22.60;51.90;;;;;;1483745;40;19962;-65
2021/06/12 05:48:46;;;;;;;;;;;22.60;52.10;;;;;;1482762;40;19968;-65
2021/06/12 05:50:07;;;;;;;;;;;22.60;52.70;;;;;;1483858;40;19937;-65
2021/06/12 05:51:28;;;;;;;;;;;22.60;52.50;;;;;;1483657;40;19932;-65
2021/06/12 05:52:49;;;;;;;;;;;22.60;52.20;;;;;;1482375;40;19932;-64
2021/06/12 05:54:10;;;;;;;;;;;22.60;52.20;;;;;;1483749;40;19939;-65
2021/06/12 05:55:31;;;;;;;;;;;22.60;52.10;;;;;;1482227;40;19943;-65
2021/06/12 05:56:52;;;;;;;;;;;22.60;52.30;;;;;;1482442;40;19936;-67
2021/06/12 05:58:13;;;;;;;;;;;22.60;52.40;;;;;;1483916;40;19944;-66
2021/06/12 05:59:33;;;;;;;;;;;22.60;52.40;;;;;;1484246;40;19940;-66
2021/06/12 06:00:54;;;;;;;;;;;22.60;52.80;;;;;;1484048;40;19988;-65
2021/06/12 06:02:15;;;;;;;;;;;22.60;52.50;;;;;;1483208;40;19936;-65
2021/06/12 06:03:36;;;;;;;;;;;22.60;52.40;;;;;;1484808;39;19944;-65
2021/06/12 06:04:57;;;;;;;;;;;22.60;52.20;;;;;;1483076;40;20376;-65
2021/06/12 06:06:17;;;;;;;;;;;22.60;52.30;;;;;;1483075;40;19932;-65
2021/06/12 06:07:38;;;;;;;;;;;22.70;52.30;;;;;;1481934;40;19936;-66
2021/06/12 06:08:59;;;;;;;;;;;22.70;52.40;;;;;;1483766;40;19947;-65
2021/06/12 06:10:20;;;;;;;;;;;22.70;52.30;;;;;;1482238;40;19940;-65
2021/06/12 06:11:41;;;;;;;;;;;22.70;52.50;;;;;;1483740;40;19963;-66
2021/06/12 06:13:03;;;;;;;;;;;22.70;52.20;;;;;;1484188;40;19999;-66
2021/06/12 06:14:23;;;;;;;;;;;22.70;52.20;;;;;;1483646;40;20168;-66
2021/06/12 06:15:44;;;;;;;;;;;22.70;52.70;;;;;;1483515;40;20203;-65
2021/06/12 06:17:05;;;;;;;;;;;22.70;52.00;;;;;;1478703;40;19941;-65
2021/06/12 06:18:26;;;;;;;;;;;22.70;52.30;;;;;;1480319;40;19971;-65
2021/06/12 06:19:47;;;;;;;;;;;22.70;52.20;;;;;;1484096;40;19947;-65
2021/06/12 06:21:08;;;;;;;;;;;22.70;52.10;;;;;;1484850;40;20038;-65
2021/06/12 06:22:28;;;;;;;;;;;22.70;51.90;;;;;;1483459;40;19948;-66
2021/06/12 06:23:49;;;;;;;;;;;22.70;52.30;;;;;;1482979;40;20253;-66
2021/06/12 06:25:10;;;;;;;;;;;22.70;52.10;;;;;;1484678;40;19933;-65
2021/06/12 06:26:31;;;;;;;;;;;22.70;52.10;;;;;;1482893;40;19940;-65
2021/06/12 06:27:52;;;;;;;;;;;22.70;52.30;;;;;;1483727;40;19979;-65
2021/06/12 06:29:13;;;;;;;;;;;22.70;52.00;;;;;;1482906;40;19936;-65
2021/06/12 06:30:34;;;;;;;;;;;22.70;52.20;;;;;;1484657;40;19940;-65
2021/06/12 06:31:54;;;;;;;;;;;22.70;52.10;;;;;;1482661;40;19948;-65
2021/06/12 06:33:15;;;;;;;;;;;22.70;51.80;;;;;;1482561;40;19949;-65
2021/06/12 06:34:36;;;;;;;;;;;22.70;51.50;;;;;;1484906;40;19939;-65
2021/06/12 06:35:57;;;;;;;;;;;22.70;51.70;;;;;;1483005;40;19937;-66
2021/06/12 06:37:18;;;;;;;;;;;22.70;52.60;;;;;;1484033;40;19943;-65
2021/06/12 06:38:38;;;;;;;;;;;22.70;52.20;;;;;;1482563;40;20204;-65
2021/06/12 06:39:59;;;;;;;;;;;22.70;52.00;;;;;;1479114;40;19933;-65
2021/06/12 06:41:20;;;;;;;;;;;22.70;52.10;;;;;;1481035;40;19947;-65
2021/06/12 06:42:41;;;;;;;;;;;22.70;52.80;;;;;;1481655;40;20249;-65
2021/06/12 06:44:02;;;;;;;;;;;22.70;53.00;;;;;;1483465;40;19944;-64
2021/06/12 06:45:23;;;;;;;;;;;22.70;52.40;;;;;;1483244;40;20184;-65
2021/06/12 06:46:44;;;;;;;;;;;22.70;52.20;;;;;;1483527;40;19959;-64
2021/06/12 06:48:05;;;;;;;;;;;22.70;52.20;;;;;;1482745;40;20165;-65
2021/06/12 06:49:26;;;;;;;;;;;22.70;52.10;;;;;;1483372;40;19932;-65
2021/06/12 06:50:47;;;;;;;;;;;22.70;52.40;;;;;;1482429;40;19932;-66
2021/06/12 06:52:07;;;;;;;;;;;22.80;52.00;;;;;;1483292;40;19947;-64
2021/06/12 06:53:32;;;;;;;;;;;22.70;52.10;;;;;;1483546;40;19940;-65
2021/06/12 06:54:53;;;;;;;;;;;22.80;52.40;;;;;;1482821;40;19948;-64
2021/06/12 06:56:14;;;;;;;;;;;22.80;52.60;;;;;;1481709;40;19943;-65
2021/06/12 06:57:35;;;;;;;;;;;22.80;52.40;;;;;;1483832;40;19978;-65
2021/06/12 06:58:55;;;;;;;;;;;22.80;52.90;;;;;;1482932;40;19936;-65
2021/06/12 07:00:16;;;;;;;;;;;22.80;52.30;;;;;;1483567;40;19939;-65
2021/06/12 07:01:37;;;;;;;;;;;22.80;52.60;;;;;;1483559;40;19936;-64
2021/06/12 07:02:59;;;;;;;;;;;22.90;52.70;;;;;;1481486;40;20267;-64
2021/06/12 07:04:20;;;;;;;;;;;22.80;52.80;;;;;;1482021;40;19963;-64
2021/06/12 07:05:41;;;;;;;;;;;22.80;52.10;;;;;;1483575;40;19939;-64
2021/06/12 07:07:04;;;;;;;;;;;22.80;52.40;;;;;;1482662;40;20292;-64
2021/06/12 07:08:24;;;;;;;;;;;22.80;52.30;;;;;;1482088;40;19963;-64
2021/06/12 07:09:45;;;;;;;;;;;22.90;52.20;;;;;;1481985;40;19948;-64
2021/06/12 07:11:06;;;;;;;;;;;22.90;52.40;;;;;;1483713;40;20300;-64
2021/06/12 07:12:27;;;;;;;;;;;22.90;52.50;;;;;;1482655;40;20183;-64
2021/06/12 07:13:47;;;;;;;;;;;22.90;53.10;;;;;;1482547;40;20368;-64
2021/06/12 07:15:09;;;;;;;;;;;22.90;52.60;;;;;;1483785;40;19977;-64
2021/06/12 07:16:30;;;;;;;;;;;22.90;52.90;;;;;;1483128;40;19932;-64
2021/06/12 07:17:51;;;;;;;;;;;22.90;52.50;;;;;;1482905;40;19940;-64
2021/06/12 07:19:11;;;;;;;;;;;22.90;52.70;;;;;;1482617;40;19932;-64
2021/06/12 07:20:32;;;;;;;;;;;22.90;52.50;;;;;;1484055;40;19976;-64
2021/06/12 07:21:53;;;;;;;;;;;22.90;52.40;;;;;;1481553;40;20245;-64
2021/06/12 07:23:15;;;;;;;;;;;22.90;52.50;;;;;;1483050;40;19946;-64
2021/06/12 07:24:36;;;;;;;;;;;22.90;52.40;;;;;;1483552;40;20244;-64
2021/06/12 07:25:57;;;;;;;;;;;22.90;52.60;;;;;;1481335;40;19947;-64
2021/06/12 07:27:18;;;;;;;;;;;22.90;52.50;;;;;;1482684;40;19952;-64
2021/06/12 07:28:38;;;;;;;;;;;22.90;52.40;;;;;;1481897;40;19940;-64
2021/06/12 07:29:59;;;;;;;;;;;22.90;52.60;;;;;;1482065;40;19946;-64
2021/06/12 07:31:20;;;;;;;;;;;22.90;52.50;;;;;;1483497;40;20311;-64
2021/06/12 07:32:41;;;;;;;;;;;22.90;52.50;;;;;;1481460;40;19964;-66
2021/06/12 07:34:02;;;;;;;;;;;22.90;52.70;;;;;;1482342;40;19977;-66
2021/06/12 07:35:23;;;;;;;;;;;22.90;52.50;;;;;;1482837;40;19944;-65
2021/06/12 07:36:44;;;;;;;;;;;22.90;52.20;;;;;;1482126;40;19943;-66
2021/06/12 07:38:05;;;;;;;;;;;22.90;52.80;;;;;;1481903;40;19936;-66
2021/06/12 07:39:27;;;;;;;;;;;23.00;52.50;;;;;;1483233;40;20062;-64
2021/06/12 07:40:48;;;;;;;;;;;22.90;52.40;;;;;;1482755;40;19940;-65
2021/06/12 07:42:09;;;;;;;;;;;23.00;52.50;;;;;;1483257;39;19936;-66
2021/06/12 07:43:29;;;;;;;;;;;23.00;52.70;;;;;;1482976;40;20241;-66
2021/06/12 07:44:50;;;;;;;;;;;23.00;52.70;;;;;;1482136;40;20242;-66
2021/06/12 07:46:11;;;;;;;;;;;23.00;53.30;;;;;;1482482;40;20184;-66
2021/06/12 07:47:32;;;;;;;;;;;23.00;53.00;;;;;;1482907;40;19932;-66
2021/06/12 07:48:52;;;;;;;;;;;23.00;52.80;;;;;;1482557;40;20224;-66
2021/06/12 07:50:14;;;;;;;;;;;23.00;52.80;;;;;;1482513;40;19939;-65
2021/06/12 07:51:35;;;;;;;;;;;22.90;52.80;;;;;;1483461;40;20028;-65
2021/06/12 07:52:55;;;;;;;;;;;23.00;52.80;;;;;;1482415;40;19940;-65
2021/06/12 07:54:16;;;;;;;;;;;23.00;52.50;;;;;;1483144;40;19980;-66